Terminal Aerodrome Forecast
Issued by NWS Wilmington, OH

Current Version | Previous Version | Graphics & Text | Print | Product List | Glossary On
Versions: 1 2 3 4 5 6 7 8 9 10 11 12 13 14 15 16 17 18 19 20 21 22
000
FTUS41 KILN 251400 AAA
TAFILN
TAF AMD
KILN 251457Z 2515/2612 24013KT 6SM HZ BKN028 OVC040
     FM252000 29012G18KT P6SM SCT040
     FM260100 30008KT P6SM SKC=

USA.gov is the U.S. government's official web portal to all federal, state and local government web resources and services.